Broome South East, Western Australia

11:43 PM AWST on October 02, 2014 (GMT +0800)
Broome International | Change Station
CLOSE
Current Station
Airport
Location: Broome,
Elevation: 30 ft
Nearby Weather Stations

Elev 30 ft 17.95 °S, 122.24 °E | Updated 13 minutes ago

Clear
Clear
75 °F
Feels Like 75 °F
N
5
Wind Variable Wind from NW

Today
High -- | Low -- °F
--% Chance of Precip.
Yesterday
High -- | Low -- °F
Precip. -- in
5:32 AM 5:48 PM
First Quarter, 60% visible
Pressure 29.86 in
Visibility 6.2 miles
Clouds
Dew Point 72 °F
Humidity 89%
Rainfall 0.00 in
Snow Depth Not available.
UV Not available.
Pollen Not available.
Air Quality Not available.
Flu Activity Not available.
METAR YBRM 021530Z AUTO 32004KT 9999 // NCD 24/22 Q1011

More Conditions Fewer Conditions

Pressure 29.86 in
Visibility 6.2 miles
Clouds
Dew Point 72 °F
Humidity 89%
Rainfall 0.00 in
Snow Depth Not available.
UV Not available.
Pollen Not available.
Air Quality Not available.
Flu Activity Not available.
METAR YBRM 021530Z AUTO 32004KT 9999 // NCD 24/22 Q1011

More Conditions Fewer Conditions

10-Day Weather Forecast

Almanac

Astronomy

Oct. 02, 2014 Rise Set
Actual Time 5:32 AM AWST 5:48 PM AWST
Civil Twilight 5:10 AM AWST 6:10 PM AWST
Nautical Twilight 4:45 AM AWST 6:35 PM AWST
Astronomical Twilight 4:19 AM AWST 7:01 PM AWST
Moon 11:40 AM AWST 12:00 AM AWST
Length of Visible Light 12h 59m
Length of Day
12h 15m
Tomorrow will be 1m 0s longer.
First Quarter, 60% of the Moon is Illuminated
Today
First Quarter
Oct 8
Full
Oct 15
Last Quarter
Oct 23
New
Oct 30
First Quarter

Today's Extremes

Country Highs Country Lows

Community

WunderPhotos

Upload Photos

1,758,276 photos uploaded!

WunderBlogs® & News

Nearby

Snow Depth

Not available.

Earthquake Activity

City Distance Mag. Time & Date
No recent earthquake activity has been reported nearby.
Minimum magnitude displayed is 2.5.

Coastal Water Temperatures

Place Temperature
No Stations Reporting

Nearby Weather Stations